Terminal Aerodrome Forecast
Issued by NWS

Current Version | Previous Version | Graphics & Text | Print | Product List | Glossary On
Versions: 1 2 3 4 5 6 7 8 9 10 11 12 13 14 15 16 17 18 19 20 21 22 23 24 25
000
FTUS41 KILN 171100 AAB
TAFLUK
TAF AMD
KLUK 171107Z 1711/1806 27010KT P6SM VCSH OVC017
      TEMPO 1711/1713 5SM -SN BR OVC022
     FM171400 27010KT P6SM OVC016
     FM180000 28004KT P6SM OVC019=

USA.gov is the U.S. government's official web portal to all federal, state and local government web resources and services.